Terminal Aerodrome Forecast
Issued by NWS

Home | Current Version | Previous Version | Text Only | Print | Product List | Glossary On
Versions: 1 2 3 4 5 6 7 8 9 10 11 12 13 14 15 16 17 18 19 20
078
FTUS41 KCAR 180520
TAFFVE
TAF
KFVE 180520Z 1806/1906 21008KT P6SM VCSH OVC035 WS020/24035KT
     FM180700 22007KT P6SM VCSH BKN035
     FM181300 29008KT P6SM FEW040
     FM181600 29013G23KT P6SM FEW250
     FM182200 25007KT P6SM FEW150=

USA.gov is the U.S. government's official web portal to all federal, state and local government web resources and services.